Time;durP1;ratioP1;P1;durP2;ratioP2;P2;SDS_P1;SDS_P2;PMS_P1;PMS_P2;Temp;Humidity;BMP_temperature;BMP_pressure;BME280_temperature;BME280_humidity;BME280_pressure;Samples;Min_cycle;Max_cycle;Signal;HPM_P1;HPM_P2
2024/03/14 00:01:15;;;;;;;9.90;6.00;;;14.40;99.90;;;;;;10557584;27;19923;-58
2024/03/14 00:06:18;;;;;;;5.72;5.13;;;14.40;99.90;;;;;;10554779;27;20043;-57
2024/03/14 00:11:20;;;;;;;;;;;13.40;99.90;;;;;;10561722;27;20922;-58
2024/03/14 00:16:22;;;;;;;9.93;6.00;;;13.90;99.90;;;;;;10560843;27;19927;-56
2024/03/14 00:21:26;;;;;;;8.50;6.70;;;12.80;99.90;;;;;;10554207;28;20051;-56
2024/03/14 00:26:30;;;;;;;7.85;7.05;;;12.50;99.90;;;;;;10557781;28;20063;-58
2024/03/14 00:31:33;;;;;;;10.80;6.90;;;12.30;99.90;;;;;;10568674;27;20084;-57
2024/03/14 00:36:37;;;;;;;9.85;5.47;;;11.80;99.90;;;;;;10566930;27;20887;-55
2024/03/14 00:41:39;;;;;;;9.27;6.43;;;11.60;99.90;;;;;;10575722;27;20117;-57
2024/03/14 00:46:41;;;;;;;7.60;6.80;;;12.00;99.90;;;;;;10572906;27;20473;-57
2024/03/14 00:51:44;;;;;;;10.00;6.23;;;11.50;99.90;;;;;;10572502;27;20062;-53
2024/03/14 00:56:48;;;;;;;8.20;7.20;;;11.40;99.90;;;;;;10577666;27;20040;-52
2024/03/14 01:01:50;;;;;;;9.15;7.28;;;11.30;99.90;;;;;;10567757;27;20051;-58
2024/03/14 01:06:52;;;;;;;11.15;7.47;;;11.10;99.90;;;;;;10564914;27;20124;-55
2024/03/14 01:11:54;;;;;;;8.73;5.80;;;11.20;99.90;;;;;;10576246;27;20070;-58
2024/03/14 01:16:57;;;;;;;7.70;6.00;;;11.60;99.90;;;;;;10553665;27;20479;-56
2024/03/14 01:21:59;;;;;;;10.03;4.67;;;11.60;99.90;;;;;;10550300;27;20056;-56
2024/03/14 01:27:01;;;;;;;7.35;5.40;;;12.00;99.90;;;;;;10570485;27;21460;-56
2024/03/14 01:32:04;;;;;;;10.67;6.43;;;11.80;99.90;;;;;;10566612;27;20062;-56
2024/03/14 01:37:06;;;;;;;8.25;7.13;;;11.60;99.90;;;;;;10542637;27;20043;-56
2024/03/14 01:42:08;;;;;;;9.47;5.40;;;11.80;99.90;;;;;;10556523;27;20552;-57
2024/03/14 01:47:11;;;;;;;10.67;5.97;;;11.90;99.90;;;;;;10573985;27;20044;-54
2024/03/14 01:52:13;;;;;;;8.25;6.03;;;12.30;99.90;;;;;;10589284;27;20107;-58
2024/03/14 01:57:15;;;;;;;11.93;5.70;;;11.50;99.90;;;;;;10548840;27;20091;-56
2024/03/14 02:02:18;;;;;;;10.27;6.17;;;11.70;99.90;;;;;;10546860;27;20051;-56
2024/03/14 02:07:20;;;;;;;;;;;11.70;99.90;;;;;;10558219;27;20039;-57
2024/03/14 02:12:23;;;;;;;13.30;6.28;;;12.00;99.90;;;;;;10565243;27;20271;-56
2024/03/14 02:17:25;;;;;;;5.53;4.22;;;12.10;99.90;;;;;;10564579;27;20051;-56
2024/03/14 02:22:27;;;;;;;11.03;6.60;;;12.40;99.90;;;;;;10555357;27;20044;-57
2024/03/14 02:27:29;;;;;;;5.30;4.03;;;11.70;99.90;;;;;;10559196;27;20455;-56
2024/03/14 02:32:31;;;;;;;6.78;5.47;;;12.70;99.90;;;;;;10565710;27;20068;-55
2024/03/14 02:37:34;;;;;;;8.40;5.27;;;12.20;99.90;;;;;;10559585;27;20205;-57
2024/03/14 02:42:36;;;;;;;12.33;4.80;;;12.30;99.90;;;;;;10564909;27;20109;-57
2024/03/14 02:47:38;;;;;;;11.67;5.47;;;12.70;99.90;;;;;;10565592;27;20051;-56
2024/03/14 02:52:40;;;;;;;11.67;5.10;;;12.40;99.90;;;;;;10557065;27;20492;-56
2024/03/14 02:57:44;;;;;;;6.63;5.07;;;12.20;99.90;;;;;;10560191;27;20039;-57
2024/03/14 03:02:46;;;;;;;9.57;5.15;;;12.80;99.90;;;;;;10541645;27;20050;-57
2024/03/14 03:07:49;;;;;;;6.77;3.57;;;12.90;99.90;;;;;;10553901;27;20128;-56
2024/03/14 03:12:51;;;;;;;7.07;4.40;;;13.50;99.90;;;;;;10544825;27;20175;-57
2024/03/14 03:17:53;;;;;;;6.93;6.00;;;13.50;99.90;;;;;;10543395;27;20043;-58
2024/03/14 03:23:08;;;;;;;8.27;6.50;;;13.30;99.90;;;;;;10558107;27;20074;-57
2024/03/14 03:28:10;;;;;;;7.22;5.30;;;12.80;99.90;;;;;;10558798;27;20141;-55
2024/03/14 03:33:16;;;;;;;8.30;5.28;;;13.50;99.90;;;;;;10561796;27;20039;-58
2024/03/14 03:38:18;;;;;;;7.43;5.35;;;13.50;99.90;;;;;;10568880;27;20047;-58
2024/03/14 03:43:21;;;;;;;7.07;4.83;;;12.80;99.90;;;;;;10556583;27;23229;-58
2024/03/14 03:48:23;;;;;;;7.50;5.70;;;12.50;99.90;;;;;;10556994;27;20050;-58
2024/03/14 03:53:25;;;;;;;14.80;5.10;;;13.20;99.90;;;;;;10559709;27;20043;-57
2024/03/14 04:15:30;;;;;;;10.25;5.53;;;12.80;99.90;;;;;;10610027;27;20156;-58
2024/03/14 04:20:33;;;;;;;7.45;6.10;;;12.20;99.90;;;;;;10583363;27;20050;-57
2024/03/14 04:25:36;;;;;;;7.35;5.15;;;13.10;99.90;;;;;;10597429;27;20050;-56
2024/03/14 04:30:38;;;;;;;5.90;5.05;;;13.80;99.90;;;;;;10600107;27;20116;-56
2024/03/14 04:35:40;;;;;;;8.52;5.63;;;14.10;99.90;;;;;;10599910;27;20422;-57
2024/03/14 04:40:43;;;;;;;7.65;5.75;;;14.40;99.90;;;;;;10599287;27;20497;-58
2024/03/14 04:45:45;;;;;;;11.55;5.63;;;13.90;99.90;;;;;;10586675;27;20051;-58
2024/03/14 04:50:48;;;;;;;8.38;5.65;;;14.30;99.90;;;;;;10597168;27;20160;-58
2024/03/14 04:55:54;;;;;;;11.93;7.60;;;14.20;99.90;;;;;;10595610;27;20111;-58
2024/03/14 05:00:57;;;;;;;9.02;6.65;;;14.40;99.90;;;;;;10591584;27;20039;-58
2024/03/14 05:05:59;;;;;;;11.48;7.28;;;14.30;99.90;;;;;;10588001;27;20051;-56
2024/03/14 05:11:01;;;;;;;13.73;7.70;;;14.70;99.90;;;;;;10573832;27;20047;-59
2024/03/14 05:16:03;;;;;;;9.30;8.10;;;14.50;99.90;;;;;;10586135;27;20052;-57
2024/03/14 05:21:10;;;;;;;7.80;5.50;;;14.50;99.90;;;;;;10586010;27;20740;-56
2024/03/14 05:26:12;;;;;;;11.30;7.32;;;15.00;99.90;;;;;;10568903;27;20099;-56
2024/03/14 05:31:14;;;;;;;9.23;6.90;;;14.90;99.90;;;;;;10546175;27;20046;-57
2024/03/14 05:36:16;;;;;;;12.68;8.45;;;15.40;99.90;;;;;;10557560;27;20082;-56
2024/03/14 05:41:19;;;;;;;11.88;7.95;;;15.10;99.90;;;;;;10561511;27;20467;-55
2024/03/14 05:46:21;;;;;;;11.13;8.23;;;15.20;99.90;;;;;;10558070;27;20044;-58
2024/03/14 05:51:23;;;;;;;13.37;8.57;;;15.20;99.90;;;;;;10547660;27;20047;-59
2024/03/14 05:56:27;;;;;;;12.13;9.13;;;15.30;99.90;;;;;;10557751;27;20081;-55
2024/03/14 06:01:29;;;;;;;11.57;8.73;;;15.00;99.90;;;;;;10552460;27;20662;-57
2024/03/14 06:06:32;;;;;;;11.13;8.10;;;15.70;99.90;;;;;;10549214;27;20503;-58
2024/03/14 06:11:34;;;;;;;14.02;9.88;;;15.50;99.90;;;;;;10564129;27;20044;-57
2024/03/14 06:16:36;;;;;;;6.72;5.03;;;15.50;99.90;;;;;;10555681;27;20392;-57
2024/03/14 06:21:41;;;;;;;13.07;10.02;;;15.70;99.90;;;;;;10543710;27;20842;-57
2024/03/14 06:26:43;;;;;;;11.65;8.95;;;15.80;99.90;;;;;;10534733;27;20686;-57
2024/03/14 06:31:45;;;;;;;13.23;8.00;;;15.80;99.90;;;;;;10545659;27;20104;-58
2024/03/14 06:36:47;;;;;;;10.32;6.13;;;15.60;99.90;;;;;;10548657;27;20039;-58
2024/03/14 06:41:49;;;;;;;13.65;7.68;;;15.70;99.90;;;;;;10554292;27;20051;-58
2024/03/14 06:46:51;;;;;;;12.93;9.07;;;15.70;99.90;;;;;;10548443;27;20780;-59
2024/03/14 06:51:55;;;;;;;11.68;8.27;;;15.90;99.90;;;;;;10535578;27;20168;-60
2024/03/14 06:57:00;;;;;;;15.40;11.13;;;15.30;99.90;;;;;;10534229;27;20058;-56
2024/03/14 07:02:02;;;;;;;16.77;10.15;;;15.00;99.90;;;;;;10537735;27;20438;-58
2024/03/14 07:07:04;;;;;;;13.38;9.35;;;15.20;99.90;;;;;;10536757;27;20082;-57
2024/03/14 07:12:09;;;;;;;11.55;7.22;;;15.20;99.90;;;;;;10551754;27;20050;-57
2024/03/14 07:17:13;;;;;;;12.35;8.68;;;15.80;99.90;;;;;;10539027;27;20119;-56
2024/03/14 07:22:16;;;;;;;9.40;6.85;;;15.70;99.90;;;;;;10554154;27;20059;-57
2024/03/14 07:27:19;;;;;;;11.82;6.80;;;15.50;99.90;;;;;;10557265;27;20047;-55
2024/03/14 07:32:21;;;;;;;;;;;15.50;99.90;;;;;;10554483;27;20800;-58
2024/03/14 07:37:23;;;;;;;11.43;7.32;;;15.80;99.90;;;;;;10549861;27;19927;-57
2024/03/14 07:42:25;;;;;;;18.30;6.53;;;16.10;99.90;;;;;;10560559;27;20039;-56
2024/03/14 07:47:27;;;;;;;9.93;7.70;;;15.90;99.90;;;;;;10544094;27;20058;-58
2024/03/14 07:52:32;;;;;;;12.45;6.30;;;16.60;99.90;;;;;;10551940;27;20048;-57
2024/03/14 07:57:36;;;;;;;8.73;6.20;;;16.70;99.90;;;;;;10555747;27;20055;-59
2024/03/14 08:02:39;;;;;;;10.82;6.72;;;17.00;99.90;;;;;;10550714;27;20472;-57
2024/03/14 08:07:40;;;;;;;;;;;17.10;99.90;;;;;;10546511;27;20047;-59
2024/03/14 08:12:43;;;;;;;11.23;6.47;;;17.10;99.90;;;;;;10546341;28;19958;-60
2024/03/14 08:17:45;;;;;;;14.75;6.95;;;16.80;99.90;;;;;;10554231;28;20059;-59
2024/03/14 08:22:52;;;;;;;6.70;5.20;;;16.90;99.90;;;;;;10549367;28;20715;-60
2024/03/14 08:27:54;;;;;;;9.45;5.45;;;16.80;99.90;;;;;;10546063;28;20783;-60
2024/03/14 08:32:57;;;;;;;8.35;5.75;;;16.70;99.90;;;;;;10549659;28;20071;-61
2024/03/14 08:37:59;;;;;;;8.52;5.80;;;16.70;99.90;;;;;;10549897;28;20162;-58
2024/03/14 08:43:02;;;;;;;8.20;5.28;;;16.80;99.90;;;;;;10540335;28;20826;-60
2024/03/14 08:48:07;;;;;;;7.63;5.28;;;16.90;99.90;;;;;;10558701;27;20917;-57
2024/03/14 08:53:12;;;;;;;11.70;4.47;;;16.90;99.90;;;;;;10562342;27;20176;-58
2024/03/14 08:58:14;;;;;;;6.57;4.47;;;16.80;99.90;;;;;;10552468;27;20766;-60
2024/03/14 09:03:17;;;;;;;5.03;4.43;;;16.80;99.90;;;;;;10553336;27;20082;-63
2024/03/14 09:08:24;;;;;;;4.55;3.50;;;16.70;99.90;;;;;;10549256;27;20048;-60
2024/03/14 09:13:30;;;;;;;10.77;3.83;;;16.80;99.90;;;;;;10550196;27;20078;-59
2024/03/14 09:18:32;;;;;;;8.07;4.15;;;16.80;99.90;;;;;;10540837;27;20165;-58
2024/03/14 09:23:37;;;;;;;6.13;3.90;;;16.70;99.90;;;;;;10549216;27;20800;-59
2024/03/14 09:28:40;;;;;;;10.93;4.75;;;16.70;99.90;;;;;;10552432;27;20131;-53
2024/03/14 09:33:43;;;;;;;6.03;3.70;;;16.00;99.90;;;;;;10532463;27;20710;-53
2024/03/14 09:38:45;;;;;;;8.95;4.57;;;16.10;99.90;;;;;;10532024;27;20048;-56
2024/03/14 09:43:47;;;;;;;6.68;4.47;;;15.20;99.90;;;;;;10559413;27;20047;-54
2024/03/14 09:48:51;;;;;;;6.47;4.73;;;14.40;99.90;;;;;;10556634;27;20596;-56
2024/03/14 09:53:54;;;;;;;6.75;4.80;;;14.60;99.90;;;;;;10551722;27;20047;-56
2024/03/14 09:58:56;;;;;;;9.43;4.75;;;14.40;99.90;;;;;;10556200;27;20426;-57
2024/03/14 10:03:59;;;;;;;11.25;4.20;;;14.00;99.90;;;;;;10545028;27;20082;-56
2024/03/14 10:09:04;;;;;;;;;;;15.10;99.90;;;;;;10556116;27;20756;-57
2024/03/14 10:14:16;;;;;;;7.75;4.78;;;14.10;99.90;;;;;;10560645;27;19923;-57
2024/03/14 10:19:18;;;;;;;10.70;5.03;;;14.50;99.90;;;;;;10554733;27;20089;-58
2024/03/14 10:24:22;;;;;;;5.73;4.33;;;14.80;99.90;;;;;;10560824;27;20082;-55
2024/03/14 10:29:29;;;;;;;9.80;4.03;;;14.70;99.90;;;;;;10559077;27;20046;-57
2024/03/14 10:34:32;;;;;;;6.47;3.90;;;14.90;99.90;;;;;;10554773;27;20056;-59
2024/03/14 10:39:34;;;;;;;9.30;4.20;;;15.10;99.90;;;;;;10540207;27;20895;-57
2024/03/14 10:44:38;;;;;;;5.40;3.30;;;15.30;99.90;;;;;;10554179;27;20071;-58
2024/03/14 10:49:40;;;;;;;4.32;3.70;;;15.70;99.90;;;;;;10555420;27;20422;-58
2024/03/14 10:54:42;;;;;;;7.45;3.45;;;16.30;99.90;;;;;;10539128;27;20051;-60
2024/03/14 10:59:44;;;;;;;9.13;4.15;;;15.80;99.90;;;;;;10537563;27;20059;-58
2024/03/14 11:04:47;;;;;;;4.43;3.15;;;15.80;99.90;;;;;;10538829;27;20071;-58
2024/03/14 11:09:50;;;;;;;5.38;3.40;;;15.40;99.90;;;;;;10551690;27;20194;-59
2024/03/14 11:14:53;;;;;;;4.70;3.03;;;15.90;99.90;;;;;;10558162;27;20611;-58
2024/03/14 11:19:56;;;;;;;6.68;2.97;;;15.50;99.90;;;;;;10559830;27;20406;-59
2024/03/14 11:24:58;;;;;;;8.48;3.38;;;17.50;99.90;;;;;;10552638;27;20054;-59
2024/03/14 11:30:01;;;;;;;;;;;17.40;99.90;;;;;;10548512;27;20705;-59
2024/03/14 11:35:40;;;;;;;7.80;2.47;;;17.30;99.90;;;;;;10548906;27;19938;-56
2024/03/14 11:40:46;;;;;;;4.65;2.47;;;18.00;99.90;;;;;;10443112;28;20060;-56
2024/03/14 11:45:49;;;;;;;5.50;3.42;;;17.70;99.90;;;;;;10493793;27;20159;-56
2024/03/14 11:50:52;;;;;;;3.35;2.78;;;18.10;99.90;;;;;;10546313;27;20133;-56
2024/03/14 11:55:54;;;;;;;3.70;2.45;;;17.70;99.90;;;;;;10537840;27;20053;-57
2024/03/14 12:01:00;;;;;;;5.05;2.80;;;17.60;99.90;;;;;;10540090;27;20422;-55
2024/03/14 12:06:05;;;;;;;6.97;2.90;;;17.60;99.90;;;;;;10522420;27;20036;-57
2024/03/14 12:11:07;;;;;;;2.67;2.10;;;17.90;99.90;;;;;;10544158;27;20109;-57
2024/03/14 12:16:11;;;;;;;4.72;2.30;;;18.20;99.90;;;;;;10550045;28;20737;-56
2024/03/14 12:21:14;;;;;;;4.97;2.08;;;18.00;99.90;;;;;;10537799;28;20078;-58
2024/03/14 12:26:17;;;;;;;3.95;2.20;;;18.30;99.90;;;;;;10534220;28;20047;-55
2024/03/14 12:31:19;;;;;;;3.30;2.03;;;18.10;99.90;;;;;;10526790;28;20055;-55
2024/03/14 12:36:21;;;;;;;4.97;1.92;;;17.40;99.90;;;;;;10557528;27;20078;-56
2024/03/14 12:41:24;;;;;;;4.25;1.88;;;18.00;99.90;;;;;;10559792;27;20541;-56
2024/03/14 12:46:28;;;;;;;4.95;2.13;;;18.70;99.90;;;;;;10549545;27;20054;-56
2024/03/14 12:51:32;;;;;;;4.95;2.50;;;19.20;99.90;;;;;;10558338;27;20070;-51
2024/03/14 12:56:34;;;;;;;3.97;2.03;;;19.40;99.90;;;;;;10537922;27;20047;-56
2024/03/14 13:01:37;;;;;;;1.73;1.55;;;19.90;99.90;;;;;;10556780;27;20063;-55
2024/03/14 13:06:39;;;;;;;3.13;2.03;;;19.70;99.90;;;;;;10552858;27;20817;-54
2024/03/14 13:11:42;;;;;;;1.50;1.33;;;18.90;99.90;;;;;;10475927;27;20055;-56
2024/03/14 13:16:45;;;;;;;2.45;1.60;;;19.80;99.90;;;;;;10446963;28;20430;-54
2024/03/14 13:21:48;;;;;;;3.03;1.40;;;20.30;99.90;;;;;;10448517;28;20067;-58
2024/03/14 13:26:57;;;;;;;2.63;1.35;;;20.60;99.90;;;;;;10460365;28;20059;-56
2024/03/14 13:31:59;;;;;;;2.80;1.67;;;20.60;99.90;;;;;;10452104;28;20115;-56
2024/03/14 13:37:02;;;;;;;;;;;20.50;99.90;;;;;;10457616;28;21563;-58
2024/03/14 13:42:05;;;;;;;6.97;1.50;;;20.60;99.90;;;;;;10469004;28;19927;-57
2024/03/14 13:47:14;;;;;;;2.75;2.05;;;21.00;99.90;;;;;;10444359;28;20504;-58
2024/03/14 13:52:18;;;;;;;4.57;1.92;;;20.80;99.90;;;;;;10456130;28;20082;-56
2024/03/14 13:57:22;;;;;;;1.60;1.25;;;20.10;99.90;;;;;;10454901;28;20053;-56
2024/03/14 14:02:24;;;;;;;6.63;2.25;;;20.90;99.90;;;;;;10452427;28;20692;-57
2024/03/14 14:07:26;;;;;;;;;;;20.80;99.90;;;;;;10454996;28;20051;-55
2024/03/14 14:12:28;;;;;;;62.20;8.90;;;21.50;99.90;;;;;;10472643;28;19920;-54
2024/03/14 14:17:30;;;;;;;4.20;2.00;;;21.70;99.90;;;;;;10462758;28;20075;-56
2024/03/14 14:22:34;;;;;;;2.95;1.23;;;21.80;99.90;;;;;;10456756;28;20135;-56
2024/03/14 14:27:36;;;;;;;2.90;1.52;;;21.90;99.90;;;;;;10451430;28;20053;-56
2024/03/14 14:32:38;;;;;;;4.18;1.38;;;21.90;99.90;;;;;;10460119;28;20048;-61
2024/03/14 14:37:41;;;;;;;5.90;2.65;;;22.00;99.90;;;;;;10445657;28;20170;-54
2024/03/14 14:42:44;;;;;;;6.65;1.90;;;22.10;99.90;;;;;;10447938;28;20056;-57
2024/03/14 14:47:46;;;;;;;7.72;2.08;;;22.20;99.90;;;;;;10465651;28;20396;-55
2024/03/14 14:52:48;;;;;;;;;;;22.30;99.90;;;;;;10449435;28;20053;-55
2024/03/14 14:57:50;;;;;;;2.60;1.35;;;22.50;99.90;;;;;;10470888;28;20387;-57
2024/03/14 15:02:53;;;;;;;7.38;2.10;;;22.60;99.90;;;;;;10449808;28;20063;-56
2024/03/14 15:07:55;;;;;;;6.80;1.92;;;22.80;99.90;;;;;;10437520;28;20275;-56
2024/03/14 15:12:57;;;;;;;;;;;22.90;99.90;;;;;;10446555;28;20064;-56
2024/03/14 15:17:59;;;;;;;3.20;1.50;;;22.90;99.90;;;;;;10465659;28;20147;-56
2024/03/14 15:23:01;;;;;;;5.60;1.92;;;22.90;99.90;;;;;;10454161;28;20198;-55
2024/03/14 15:28:03;;;;;;;3.90;2.03;;;23.00;99.90;;;;;;10442231;28;20060;-57
2024/03/14 15:33:06;;;;;;;;;;;22.60;99.90;;;;;;10447153;28;20040;-57
2024/03/14 15:38:10;;;;;;;4.05;1.67;;;22.70;99.90;;;;;;10451453;28;19928;-57
2024/03/14 15:43:14;;;;;;;6.15;1.88;;;22.90;99.90;;;;;;10453260;28;20044;-55
2024/03/14 15:48:20;;;;;;;2.63;1.70;;;22.90;99.90;;;;;;10449583;28;20214;-55
2024/03/14 15:53:23;;;;;;;3.05;1.42;;;22.40;99.90;;;;;;10438088;28;20059;-55
2024/03/14 15:58:29;;;;;;;7.40;1.63;;;21.40;99.90;;;;;;10451616;28;20053;-56
2024/03/14 16:03:33;;;;;;;2.83;1.30;;;20.90;99.90;;;;;;10443425;28;20053;-53
2024/03/14 16:08:41;;;;;;;5.15;1.75;;;21.50;99.90;;;;;;10448951;28;20084;-52
2024/03/14 16:13:43;;;;;;;3.65;1.60;;;20.80;99.90;;;;;;10449757;28;20060;-54
2024/03/14 16:18:48;;;;;;;;;;;21.10;99.90;;;;;;10447683;28;20982;-55
2024/03/14 16:23:50;;;;;;;10.77;1.70;;;20.80;99.90;;;;;;10470570;28;19923;-52
2024/03/14 16:28:54;;;;;;;3.28;1.60;;;20.40;99.90;;;;;;10462818;28;20087;-57
2024/03/14 16:33:57;;;;;;;3.65;1.80;;;21.30;99.90;;;;;;10447643;28;20117;-50
2024/03/14 16:39:00;;;;;;;2.90;1.30;;;21.40;99.90;;;;;;10440804;28;20068;-53
2024/03/14 16:44:02;;;;;;;3.58;1.42;;;21.60;99.90;;;;;;10444400;28;20089;-55
2024/03/14 16:49:04;;;;;;;7.40;1.70;;;22.10;99.90;;;;;;10444380;28;20051;-56
2024/03/14 16:54:12;;;;;;;2.10;1.30;;;22.30;99.90;;;;;;10437513;28;20044;-54
2024/03/14 16:59:15;;;;;;;3.33;1.52;;;22.10;99.90;;;;;;10454611;28;20861;-53
2024/03/14 17:04:17;;;;;;;3.17;1.40;;;21.20;99.90;;;;;;10442550;28;20583;-57
2024/03/14 17:09:19;;;;;;;4.00;1.15;;;21.00;99.90;;;;;;10447523;28;20217;-54
2024/03/14 17:14:21;;;;;;;9.90;1.98;;;21.80;99.90;;;;;;10449058;28;20064;-55
2024/03/14 17:19:24;;;;;;;4.18;1.50;;;20.70;99.90;;;;;;10435850;28;20458;-57
2024/03/14 17:24:26;;;;;;;7.28;1.42;;;21.20;99.90;;;;;;10448102;28;20044;-55
2024/03/14 17:29:29;;;;;;;2.25;1.92;;;20.10;99.90;;;;;;10450779;28;20056;-56
2024/03/14 17:34:32;;;;;;;4.55;1.88;;;18.60;99.90;;;;;;10447414;28;20051;-55
2024/03/14 17:39:34;;;;;;;;;;;18.70;99.90;;;;;;10440383;28;20085;-55
2024/03/14 17:44:36;;;;;;;2.90;1.30;;;18.60;99.90;;;;;;10469068;28;19924;-56
2024/03/14 17:49:38;;;;;;;6.30;1.45;;;19.10;99.90;;;;;;10441589;28;20084;-55
2024/03/14 17:54:41;;;;;;;2.67;1.20;;;19.40;99.90;;;;;;10472121;28;20109;-53
2024/03/14 17:59:43;;;;;;;3.83;1.50;;;19.70;99.90;;;;;;10459673;28;20049;-55
2024/03/14 18:04:45;;;;;;;1.23;1.13;;;18.20;99.90;;;;;;10453377;28;20056;-54
2024/03/14 18:09:48;;;;;;;3.40;1.70;;;16.70;99.90;;;;;;10452121;28;20895;-54
2024/03/14 18:14:50;;;;;;;4.00;1.95;;;16.40;99.90;;;;;;10460208;28;20053;-54
2024/03/14 18:19:52;;;;;;;4.90;2.03;;;16.20;99.90;;;;;;10456756;28;20424;-52
2024/03/14 18:24:54;;;;;;;3.50;1.80;;;16.50;99.90;;;;;;10474236;28;20047;-53
2024/03/14 18:29:56;;;;;;;8.30;1.70;;;16.30;99.90;;;;;;10471228;28;20167;-55
2024/03/14 18:34:58;;;;;;;5.05;1.85;;;16.50;99.90;;;;;;10452552;28;20587;-53
2024/03/14 18:40:00;;;;;;;7.47;1.60;;;16.20;99.90;;;;;;10450408;28;20045;-53
2024/03/14 18:45:05;;;;;;;3.30;1.80;;;16.60;99.90;;;;;;10460555;28;21160;-54
2024/03/14 18:50:11;;;;;;;7.00;4.47;;;16.70;99.90;;;;;;10453116;28;20894;-54
2024/03/14 18:55:13;;;;;;;5.30;2.30;;;16.10;99.90;;;;;;10448418;28;20055;-55
2024/03/14 19:00:18;;;;;;;4.57;2.30;;;16.10;99.90;;;;;;10459753;28;20560;-55
2024/03/14 19:05:26;;;;;;;5.60;3.00;;;17.00;99.90;;;;;;10463405;28;20059;-54
2024/03/14 19:10:28;;;;;;;5.53;2.58;;;16.70;99.90;;;;;;10453922;28;20055;-59
2024/03/14 19:15:31;;;;;;;5.05;1.83;;;16.90;99.90;;;;;;10461025;28;20494;-54
2024/03/14 19:20:34;;;;;;;7.70;2.45;;;18.00;99.90;;;;;;10449472;28;20168;-54
2024/03/14 19:25:36;;;;;;;7.03;2.45;;;17.90;99.90;;;;;;10453779;28;20063;-56
2024/03/14 19:30:39;;;;;;;3.13;2.15;;;18.60;99.90;;;;;;10444817;28;20142;-55
2024/03/14 19:35:41;;;;;;;6.40;1.90;;;19.00;99.90;;;;;;10446981;28;20044;-54
2024/03/14 19:40:45;;;;;;;4.25;2.17;;;19.60;99.90;;;;;;10443630;28;20054;-56
2024/03/14 19:45:47;;;;;;;2.88;2.25;;;19.10;99.90;;;;;;10451163;28;20489;-56
2024/03/14 19:50:49;;;;;;;3.03;1.70;;;18.40;99.90;;;;;;10452537;28;20763;-55
2024/03/14 19:55:52;;;;;;;2.47;1.98;;;19.00;99.90;;;;;;10444082;28;20940;-55
2024/03/14 20:00:54;;;;;;;4.47;2.35;;;18.60;99.90;;;;;;10450963;28;20134;-56
2024/03/14 20:05:56;;;;;;;4.65;2.20;;;18.40;99.90;;;;;;10450940;28;20070;-56
2024/03/14 20:10:59;;;;;;;3.88;2.22;;;18.50;99.90;;;;;;10441648;28;20048;-57
2024/03/14 20:16:01;;;;;;;7.90;3.33;;;18.20;99.90;;;;;;10465188;28;20043;-57
2024/03/14 20:21:03;;;;;;;5.85;3.03;;;17.30;99.90;;;;;;10446804;28;20053;-58
2024/03/14 20:26:07;;;;;;;8.50;4.18;;;16.70;99.90;;;;;;10448426;28;20072;-55
2024/03/14 20:31:10;;;;;;;5.57;3.58;;;16.50;99.90;;;;;;10449747;28;20114;-55
2024/03/14 20:36:12;;;;;;;5.68;3.90;;;16.80;99.90;;;;;;10439869;28;20065;-55
2024/03/14 20:41:22;;;;;;;7.72;3.83;;;16.10;99.90;;;;;;10448952;28;20051;-55
2024/03/14 20:46:24;;;;;;;9.75;4.07;;;16.80;99.90;;;;;;10442958;28;20044;-57
2024/03/14 20:51:27;;;;;;;6.17;3.77;;;16.60;99.90;;;;;;10424847;28;20048;-55
2024/03/14 20:56:30;;;;;;;7.55;5.07;;;16.90;99.90;;;;;;10452310;28;20466;-54
2024/03/14 21:01:33;;;;;;;8.80;4.57;;;15.40;99.90;;;;;;10448807;28;20474;-55
2024/03/14 21:06:35;;;;;;;11.60;5.78;;;14.80;99.90;;;;;;10451246;28;20583;-56
2024/03/14 21:11:38;;;;;;;10.48;4.07;;;14.50;99.90;;;;;;10458135;28;20095;-55
2024/03/14 21:16:41;;;;;;;16.17;5.57;;;14.50;99.90;;;;;;10455249;28;20086;-55
2024/03/14 21:21:44;;;;;;;10.70;5.95;;;14.20;99.90;;;;;;10460272;28;20071;-55
2024/03/14 21:26:46;;;;;;;10.07;4.28;;;14.20;99.90;;;;;;10465460;28;20142;-55
2024/03/14 21:31:49;;;;;;;10.37;4.40;;;15.10;99.90;;;;;;10465540;28;20056;-58
2024/03/14 21:36:51;;;;;;;;;;;16.80;99.90;;;;;;10462116;28;23293;-57
2024/03/14 21:41:53;;;;;;;8.95;4.80;;;17.20;99.90;;;;;;10478965;28;20934;-55
2024/03/14 21:46:55;;;;;;;13.60;5.43;;;17.40;99.90;;;;;;10456388;28;20102;-56
2024/03/14 21:51:57;;;;;;;6.50;4.90;;;17.50;99.90;;;;;;10458659;28;20114;-56
2024/03/14 21:56:59;;;;;;;28.35;5.75;;;17.90;99.90;;;;;;10470449;28;20082;-53
2024/03/14 22:02:02;;;;;;;9.98;4.68;;;17.70;99.90;;;;;;10453411;28;20205;-55
2024/03/14 22:07:04;;;;;;;9.73;5.13;;;17.80;99.90;;;;;;10466613;28;20075;-55
2024/03/14 22:12:07;;;;;;;9.25;5.25;;;17.80;99.90;;;;;;10454524;28;20079;-56
2024/03/14 22:17:08;;;;;;;;;;;17.90;99.90;;;;;;10466356;28;20868;-57
2024/03/14 22:22:11;;;;;;;10.48;5.43;;;18.20;99.90;;;;;;10477607;28;20335;-58
2024/03/14 22:27:13;;;;;;;;;;;18.00;99.90;;;;;;10460782;28;20082;-54
2024/03/14 22:32:15;;;;;;;13.27;5.53;;;17.70;99.90;;;;;;10471686;28;19920;-57
2024/03/14 22:37:18;;;;;;;11.30;4.97;;;18.00;99.90;;;;;;10454756;28;20059;-55
2024/03/14 22:42:20;;;;;;;5.00;3.90;;;18.30;99.90;;;;;;10460485;28;20056;-56
2024/03/14 22:47:22;;;;;;;6.03;3.33;;;18.40;99.90;;;;;;10460291;28;20860;-55
2024/03/14 22:52:24;;;;;;;6.45;4.32;;;18.60;99.90;;;;;;10458692;28;20048;-55
2024/03/14 22:57:26;;;;;;;7.95;4.63;;;18.70;99.90;;;;;;10448089;28;20075;-57
2024/03/14 23:02:28;;;;;;;9.57;5.20;;;18.60;99.90;;;;;;10478776;28;20150;-56
2024/03/14 23:07:30;;;;;;;7.97;5.00;;;18.20;99.90;;;;;;10462110;28;20059;-57
2024/03/14 23:12:33;;;;;;;9.43;4.97;;;17.70;99.90;;;;;;10457599;28;20056;-56
2024/03/14 23:17:35;;;;;;;11.65;4.93;;;17.50;99.90;;;;;;10464258;28;20048;-57
2024/03/14 23:22:37;;;;;;;7.60;3.63;;;17.20;99.90;;;;;;10463047;28;20054;-56
2024/03/14 23:27:43;;;;;;;11.13;5.32;;;17.30;99.90;;;;;;10480209;28;20103;-51
2024/03/14 23:32:45;;;;;;;10.27;5.55;;;17.30;99.90;;;;;;10462874;28;20052;-56
2024/03/14 23:37:48;;;;;;;11.02;5.15;;;16.30;99.90;;;;;;10458346;28;20075;-57
2024/03/14 23:42:50;;;;;;;17.10;6.38;;;16.50;99.90;;;;;;10464741;28;20052;-54
2024/03/14 23:47:52;;;;;;;12.30;5.63;;;15.70;99.90;;;;;;10458335;28;20055;-58
2024/03/14 23:52:54;;;;;;;10.32;6.57;;;15.80;99.90;;;;;;10456495;28;20433;-58
2024/03/14 23:57:58;;;;;;;9.27;5.82;;;15.30;99.90;;;;;;10458917;28;20080;-54
